Time;durP1;ratioP1;P1;durP2;ratioP2;P2;SDS_P1;SDS_P2;PMS_P1;PMS_P2;Temp;Humidity;BMP_temperature;BMP_pressure;BME280_temperature;BME280_humidity;BME280_pressure;Samples;Min_cycle;Max_cycle;Signal;HPM_P1;HPM_P2
2022/01/19 00:00:05;;;;;;;;;;;21.10;31.10;;;;;;680445;29;1203;-88
2022/01/19 00:00:26;;;;;;;;;;;21.10;31.30;;;;;;678277;29;1296;-86
2022/01/19 00:00:47;;;;;;;;;;;21.10;31.20;;;;;;680436;29;1099;-90
2022/01/19 00:01:08;;;;;;;;;;;21.10;31.20;;;;;;680595;29;1175;-87
2022/01/19 00:01:28;;;;;;;;;;;21.10;31.20;;;;;;680477;29;1093;-88
2022/01/19 00:01:49;;;;;;;;;;;21.10;31.10;;;;;;680463;29;1238;-85
2022/01/19 00:02:09;;;;;;;;;;;21.20;31.20;;;;;;680747;29;1234;-90
2022/01/19 00:02:30;;;;;;;;;;;21.10;31.10;;;;;;680715;29;1374;-87
2022/01/19 00:02:50;;;;;;;;;;;21.10;30.90;;;;;;683083;29;1234;-91
2022/01/19 00:03:11;;;;;;;;;;;21.20;31.10;;;;;;680309;29;1222;-87
2022/01/19 00:03:32;;;;;;;;;;;21.10;31.20;;;;;;677877;29;1317;-86
2022/01/19 00:03:52;;;;;;;;;;;21.10;31.20;;;;;;677896;29;1341;-89
2022/01/19 00:04:13;;;;;;;;;;;21.20;31.20;;;;;;678160;29;1179;-91
2022/01/19 00:04:34;;;;;;;;;;;21.10;31.40;;;;;;680874;29;1208;-87
2022/01/19 00:04:54;;;;;;;;;;;21.10;31.40;;;;;;680419;29;1236;-90
2022/01/19 00:05:15;;;;;;;;;;;21.10;31.20;;;;;;681066;29;1261;-90
2022/01/19 00:05:41;;;;;;;;;;;21.10;31.20;;;;;;680331;29;1393;-89
2022/01/19 00:06:04;;;;;;;;;;;21.10;31.20;;;;;;680374;29;1218;-89
2022/01/19 00:06:25;;;;;;;;;;;21.10;31.40;;;;;;678276;29;1435;-87
2022/01/19 00:06:45;;;;;;;;;;;21.10;31.30;;;;;;680448;29;1275;-88
2022/01/19 00:07:06;;;;;;;;;;;21.10;31.10;;;;;;680773;29;1372;-89
2022/01/19 00:07:27;;;;;;;;;;;21.10;31.30;;;;;;683065;29;1210;-88
2022/01/19 00:07:47;;;;;;;;;;;21.10;31.20;;;;;;683137;29;1190;-87
2022/01/19 00:08:08;;;;;;;;;;;21.10;31.20;;;;;;680749;29;1270;-88
2022/01/19 00:08:29;;;;;;;;;;;21.10;31.20;;;;;;678253;29;1202;-90
2022/01/19 00:08:51;;;;;;;;;;;21.10;31.00;;;;;;680863;29;1222;-90
2022/01/19 00:09:12;;;;;;;;;;;21.10;30.90;;;;;;679846;29;1302;-84
2022/01/19 00:09:32;;;;;;;;;;;21.10;31.10;;;;;;680797;29;1095;-86
2022/01/19 00:09:53;;;;;;;;;;;21.10;31.20;;;;;;680417;29;1148;-86
2022/01/19 00:10:18;;;;;;;;;;;21.20;31.30;;;;;;678195;29;1092;-86
2022/01/19 00:10:39;;;;;;;;;;;21.20;31.10;;;;;;680618;29;1092;-89
2022/01/19 00:11:00;;;;;;;;;;;21.20;31.20;;;;;;679175;29;1383;-89
2022/01/19 00:11:21;;;;;;;;;;;21.10;31.20;;;;;;680440;29;1262;-88
2022/01/19 00:11:41;;;;;;;;;;;21.10;31.40;;;;;;680555;29;1210;-87
2022/01/19 00:12:02;;;;;;;;;;;21.10;31.20;;;;;;680718;29;1244;-88
2022/01/19 00:12:22;;;;;;;;;;;21.20;31.30;;;;;;680859;29;1064;-89
2022/01/19 00:12:45;;;;;;;;;;;21.10;31.00;;;;;;680944;29;1457;-89
2022/01/19 00:13:05;;;;;;;;;;;21.10;31.00;;;;;;681172;29;1205;-90
2022/01/19 00:13:26;;;;;;;;;;;21.10;30.90;;;;;;680850;29;1293;-88
2022/01/19 00:13:46;;;;;;;;;;;21.10;31.10;;;;;;680742;29;1455;-89
2022/01/19 00:14:07;;;;;;;;;;;21.10;30.80;;;;;;680925;29;1282;-89
2022/01/19 00:14:29;;;;;;;;;;;21.10;30.70;;;;;;681086;29;1261;-89
2022/01/19 00:14:50;;;;;;;;;;;21.20;30.70;;;;;;680792;29;1159;-90
2022/01/19 00:15:10;;;;;;;;;;;21.10;30.60;;;;;;681397;29;1102;-89
2022/01/19 00:15:31;;;;;;;;;;;21.10;30.40;;;;;;680933;29;1923;-89
2022/01/19 00:15:52;;;;;;;;;;;21.10;30.30;;;;;;680544;29;1206;-90
2022/01/19 00:16:12;;;;;;;;;;;21.10;30.50;;;;;;678502;29;1195;-87
2022/01/19 00:16:33;;;;;;;;;;;21.10;30.60;;;;;;678377;29;1097;-89
2022/01/19 00:16:53;;;;;;;;;;;21.10;30.40;;;;;;678050;29;851;-89
2022/01/19 00:17:14;;;;;;;;;;;21.10;30.30;;;;;;678863;29;1222;-91
2022/01/19 00:17:34;;;;;;;;;;;21.10;30.30;;;;;;678058;29;915;-89
2022/01/19 00:17:57;;;;;;;;;;;21.10;30.40;;;;;;680772;29;1284;-89
2022/01/19 00:18:20;;;;;;;;;;;21.10;30.50;;;;;;681567;29;1210;-89
2022/01/19 00:18:40;;;;;;;;;;;21.00;30.50;;;;;;682674;29;1251;-87
2022/01/19 00:19:01;;;;;;;;;;;21.00;30.60;;;;;;680597;29;1404;-89
2022/01/19 00:19:21;;;;;;;;;;;21.00;30.50;;;;;;681556;29;1509;-89
2022/01/19 00:19:42;;;;;;;;;;;21.00;30.30;;;;;;683695;28;1375;-90
2022/01/19 00:20:03;;;;;;;;;;;21.00;30.20;;;;;;686291;28;1091;-89
2022/01/19 00:20:25;;;;;;;;;;;21.00;30.50;;;;;;683338;28;1217;-87
2022/01/19 00:20:46;;;;;;;;;;;21.00;30.40;;;;;;680380;29;1234;-90
2022/01/19 00:21:07;;;;;;;;;;;21.00;30.40;;;;;;680620;29;1267;-90
2022/01/19 00:21:27;;;;;;;;;;;21.00;30.70;;;;;;681973;29;1206;-90
2022/01/19 00:21:48;;;;;;;;;;;21.00;30.50;;;;;;685354;29;1218;-89
2022/01/19 00:22:09;;;;;;;;;;;21.00;30.60;;;;;;683623;29;1290;-88
2022/01/19 00:22:29;;;;;;;;;;;20.90;30.60;;;;;;685423;28;1389;-89
2022/01/19 00:22:50;;;;;;;;;;;21.00;31.10;;;;;;685235;28;1418;-88
2022/01/19 00:23:12;;;;;;;;;;;21.00;30.80;;;;;;682667;28;1232;-90
2022/01/19 00:23:33;;;;;;;;;;;21.00;30.80;;;;;;680134;29;1207;-90
2022/01/19 00:23:54;;;;;;;;;;;21.00;30.80;;;;;;680935;29;1214;-91
2022/01/19 00:24:14;;;;;;;;;;;20.90;30.70;;;;;;682783;29;1209;-90
2022/01/19 00:24:35;;;;;;;;;;;21.00;30.70;;;;;;682348;29;1128;-89
2022/01/19 00:24:56;;;;;;;;;;;20.90;30.80;;;;;;683211;29;1170;-88
2022/01/19 00:25:16;;;;;;;;;;;20.90;30.70;;;;;;683305;29;1328;-85
2022/01/19 00:25:37;;;;;;;;;;;20.90;30.80;;;;;;682651;29;1202;-84
2022/01/19 00:25:58;;;;;;;;;;;20.90;30.80;;;;;;680588;29;1327;-85
2022/01/19 00:26:19;;;;;;;;;;;20.90;30.60;;;;;;679948;29;1148;-84
2022/01/19 00:26:39;;;;;;;;;;;20.90;30.60;;;;;;680269;29;1262;-84
2022/01/19 00:27:00;;;;;;;;;;;20.90;30.50;;;;;;680460;29;1186;-86
2022/01/19 00:27:20;;;;;;;;;;;20.90;30.70;;;;;;685509;28;1333;-84
2022/01/19 00:27:41;;;;;;;;;;;20.90;30.60;;;;;;685506;28;1245;-84
2022/01/19 00:28:02;;;;;;;;;;;20.90;30.90;;;;;;685433;28;1363;-84
2022/01/19 00:28:23;;;;;;;;;;;20.90;31.00;;;;;;682912;29;1241;-84
2022/01/19 00:28:44;;;;;;;;;;;20.90;30.80;;;;;;682596;29;1277;-84
2022/01/19 00:29:04;;;;;;;;;;;20.90;30.80;;;;;;682908;29;1242;-90
2022/01/19 00:29:25;;;;;;;;;;;20.90;31.00;;;;;;682074;29;1194;-85
2022/01/19 00:29:45;;;;;;;;;;;20.90;31.30;;;;;;682861;29;1433;-87
2022/01/19 00:30:06;;;;;;;;;;;20.90;31.70;;;;;;680496;29;1143;-91
2022/01/19 00:30:33;;;;;;;;;;;20.90;31.70;;;;;;681733;29;1194;-87
2022/01/19 00:30:54;;;;;;;;;;;20.90;31.80;;;;;;683188;29;1437;-87
2022/01/19 00:31:15;;;;;;;;;;;20.90;33.00;;;;;;682609;29;1326;-87
2022/01/19 00:31:35;;;;;;;;;;;20.90;31.60;;;;;;679664;29;1185;-90
2022/01/19 00:31:56;;;;;;;;;;;20.90;31.80;;;;;;677230;29;1288;-84
2022/01/19 00:32:17;;;;;;;;;;;20.90;31.70;;;;;;674358;29;1321;-84
2022/01/19 00:32:37;;;;;;;;;;;20.90;31.70;;;;;;677104;29;1101;-89
2022/01/19 00:32:58;;;;;;;;;;;20.90;31.90;;;;;;677117;29;1314;-90
2022/01/19 00:33:22;;;;;;;;;;;20.90;31.70;;;;;;679602;29;1227;-88
2022/01/19 00:33:42;;;;;;;;;;;20.90;31.80;;;;;;681759;29;1186;-88
2022/01/19 00:34:03;;;;;;;;;;;20.90;31.90;;;;;;678268;29;1206;-89
2022/01/19 00:34:24;;;;;;;;;;;20.90;31.80;;;;;;677666;29;1187;-89
2022/01/19 00:34:44;;;;;;;;;;;20.90;32.10;;;;;;678255;29;1218;-88
2022/01/19 00:35:05;;;;;;;;;;;20.90;32.10;;;;;;678182;29;1317;-91
2022/01/19 00:35:26;;;;;;;;;;;20.90;32.10;;;;;;675773;29;1407;-91
2022/01/19 00:35:48;;;;;;;;;;;20.90;32.10;;;;;;678368;29;1958;-91
2022/01/19 00:36:08;;;;;;;;;;;20.90;32.20;;;;;;677814;29;1333;-90
2022/01/19 00:36:29;;;;;;;;;;;20.90;32.00;;;;;;678519;29;1402;-92
2022/01/19 00:36:50;;;;;;;;;;;20.90;32.00;;;;;;677756;29;1222;-91
2022/01/19 00:37:10;;;;;;;;;;;20.90;32.00;;;;;;678535;29;1346;-90
2022/01/19 00:37:31;;;;;;;;;;;20.90;32.10;;;;;;678040;29;1179;-90
2022/01/19 00:37:52;;;;;;;;;;;20.90;32.10;;;;;;678690;29;1128;-90
2022/01/19 00:38:15;;;;;;;;;;;20.90;32.10;;;;;;678598;29;1276;-92
2022/01/19 00:38:36;;;;;;;;;;;20.90;32.00;;;;;;678497;29;1340;-90
2022/01/19 00:38:57;;;;;;;;;;;20.90;32.10;;;;;;677873;29;1195;-90
2022/01/19 00:39:17;;;;;;;;;;;20.90;32.10;;;;;;678164;29;1378;-91
2022/01/19 00:39:38;;;;;;;;;;;20.80;32.10;;;;;;677625;29;1174;-91
2022/01/19 00:39:58;;;;;;;;;;;20.80;32.00;;;;;;679471;29;1356;-90
2022/01/19 00:40:19;;;;;;;;;;;20.90;32.00;;;;;;677971;29;1079;-90
2022/01/19 00:40:41;;;;;;;;;;;20.90;32.10;;;;;;678272;29;1308;-91
2022/01/19 00:41:02;;;;;;;;;;;20.90;32.00;;;;;;678122;29;1478;-89
2022/01/19 00:41:23;;;;;;;;;;;20.90;32.10;;;;;;679184;29;1300;-90
2022/01/19 00:41:43;;;;;;;;;;;20.80;32.10;;;;;;678006;29;1111;-90
2022/01/19 00:42:04;;;;;;;;;;;20.80;32.10;;;;;;679707;29;879;-91
2022/01/19 00:42:28;;;;;;;;;;;20.80;32.00;;;;;;678037;29;1299;-90
2022/01/19 00:42:49;;;;;;;;;;;20.90;32.00;;;;;;678325;29;1331;-91
2022/01/19 00:43:11;;;;;;;;;;;20.90;32.00;;;;;;677373;29;1116;-89
2022/01/19 00:43:36;;;;;;;;;;;20.80;31.90;;;;;;678443;29;1334;-90
2022/01/19 00:43:56;;;;;;;;;;;20.80;31.90;;;;;;677580;29;1297;-90
2022/01/19 00:44:17;;;;;;;;;;;20.90;32.00;;;;;;679630;29;1344;-90
2022/01/19 00:44:40;;;;;;;;;;;20.80;31.90;;;;;;677090;29;1161;-90
2022/01/19 00:45:00;;;;;;;;;;;20.80;32.00;;;;;;678503;29;1313;-91
2022/01/19 00:45:21;;;;;;;;;;;20.80;32.00;;;;;;677387;29;1296;-85
2022/01/19 00:45:43;;;;;;;;;;;20.80;31.90;;;;;;678266;29;1210;-86
2022/01/19 00:46:03;;;;;;;;;;;20.80;31.90;;;;;;677623;29;1318;-90
2022/01/19 00:46:24;;;;;;;;;;;20.80;32.00;;;;;;679000;29;1231;-91
2022/01/19 00:46:45;;;;;;;;;;;20.80;32.00;;;;;;677832;29;1353;-90
2022/01/19 00:47:06;;;;;;;;;;;20.80;32.00;;;;;;678104;29;1229;-91
2022/01/19 00:47:26;;;;;;;;;;;20.80;32.00;;;;;;677867;29;1251;-88
2022/01/19 00:47:47;;;;;;;;;;;20.80;31.90;;;;;;677844;29;1492;-86
2022/01/19 00:48:08;;;;;;;;;;;20.80;31.90;;;;;;677680;29;1345;-85
2022/01/19 00:48:29;;;;;;;;;;;20.90;31.90;;;;;;678536;29;1225;-88
2022/01/19 00:48:49;;;;;;;;;;;20.80;32.00;;;;;;677600;29;1391;-85
2022/01/19 00:49:10;;;;;;;;;;;20.80;31.90;;;;;;678297;29;1194;-86
2022/01/19 00:49:31;;;;;;;;;;;20.80;32.00;;;;;;677932;29;1334;-89
2022/01/19 00:49:51;;;;;;;;;;;20.80;31.90;;;;;;678182;29;1136;-87
2022/01/19 00:50:14;;;;;;;;;;;20.80;32.00;;;;;;677738;29;1282;-90
2022/01/19 00:50:35;;;;;;;;;;;20.80;32.00;;;;;;678804;29;1108;-88
2022/01/19 00:50:58;;;;;;;;;;;20.80;31.90;;;;;;677575;29;1153;-87
2022/01/19 00:51:18;;;;;;;;;;;20.80;32.00;;;;;;676389;29;808;-89
2022/01/19 00:51:39;;;;;;;;;;;20.80;32.10;;;;;;677190;29;1308;-86
2022/01/19 00:52:00;;;;;;;;;;;20.80;32.00;;;;;;678186;29;1197;-88
2022/01/19 00:52:20;;;;;;;;;;;20.80;31.90;;;;;;677515;29;1104;-90
2022/01/19 00:52:41;;;;;;;;;;;20.80;31.90;;;;;;678451;29;1345;-87
2022/01/19 00:53:02;;;;;;;;;;;20.80;31.90;;;;;;678246;29;1209;-88
2022/01/19 00:53:22;;;;;;;;;;;20.80;31.90;;;;;;677899;29;1388;-86
2022/01/19 00:53:43;;;;;;;;;;;20.80;31.90;;;;;;677694;29;1281;-85
2022/01/19 00:54:03;;;;;;;;;;;20.80;31.90;;;;;;678312;29;1293;-86
2022/01/19 00:54:24;;;;;;;;;;;20.80;31.90;;;;;;677738;29;1250;-89
2022/01/19 00:54:44;;;;;;;;;;;20.80;31.80;;;;;;678357;29;1383;-87
2022/01/19 00:55:06;;;;;;;;;;;20.80;31.80;;;;;;678057;29;1290;-87
2022/01/19 00:55:27;;;;;;;;;;;20.80;31.80;;;;;;677692;29;1183;-86
2022/01/19 00:55:47;;;;;;;;;;;20.80;31.80;;;;;;677934;29;1948;-84
2022/01/19 00:56:09;;;;;;;;;;;20.80;31.80;;;;;;675635;29;944;-86
2022/01/19 00:56:29;;;;;;;;;;;20.80;32.00;;;;;;675546;29;1234;-87
2022/01/19 00:56:50;;;;;;;;;;;20.80;32.00;;;;;;675878;29;1172;-85
2022/01/19 00:57:10;;;;;;;;;;;20.80;31.80;;;;;;680588;29;1417;-86
2022/01/19 00:57:31;;;;;;;;;;;20.80;31.70;;;;;;678059;29;1296;-85
2022/01/19 00:57:52;;;;;;;;;;;20.80;31.60;;;;;;677959;29;1111;-85
2022/01/19 00:58:12;;;;;;;;;;;20.80;31.50;;;;;;677773;29;1398;-85
2022/01/19 00:58:33;;;;;;;;;;;20.80;31.30;;;;;;677826;29;947;-85
2022/01/19 00:58:53;;;;;;;;;;;20.80;31.30;;;;;;675553;29;863;-86
2022/01/19 00:59:14;;;;;;;;;;;20.80;31.30;;;;;;675717;29;1183;-88
2022/01/19 00:59:35;;;;;;;;;;;20.70;31.20;;;;;;677825;29;1203;-85
2022/01/19 00:59:56;;;;;;;;;;;20.80;31.50;;;;;;675860;29;1408;-86
2022/01/19 01:00:18;;;;;;;;;;;20.80;31.70;;;;;;678099;29;1213;-87
2022/01/19 01:00:39;;;;;;;;;;;20.80;31.70;;;;;;677284;29;1187;-85
2022/01/19 01:00:59;;;;;;;;;;;20.80;31.50;;;;;;678269;29;1106;-86
2022/01/19 01:01:20;;;;;;;;;;;20.80;31.70;;;;;;678114;29;1223;-85
2022/01/19 01:01:40;;;;;;;;;;;20.80;31.60;;;;;;675390;29;1324;-85
2022/01/19 01:02:01;;;;;;;;;;;20.80;31.40;;;;;;675027;29;1388;-85
2022/01/19 01:02:22;;;;;;;;;;;20.80;31.30;;;;;;675440;29;1231;-88
2022/01/19 01:02:42;;;;;;;;;;;20.80;31.20;;;;;;675581;29;808;-86
2022/01/19 01:03:04;;;;;;;;;;;20.80;31.40;;;;;;675713;29;1268;-85
2022/01/19 01:03:25;;;;;;;;;;;20.80;31.20;;;;;;680706;29;1264;-86
2022/01/19 01:03:45;;;;;;;;;;;20.80;31.00;;;;;;683942;28;1191;-85
2022/01/19 01:04:06;;;;;;;;;;;20.80;30.80;;;;;;685992;28;1262;-89
2022/01/19 01:04:41;;;;;;;;;;;20.70;30.90;;;;;;686917;28;1362;-86
2022/01/19 01:05:04;;;;;;;;;;;20.80;31.30;;;;;;685901;29;1326;-83
2022/01/19 01:05:24;;;;;;;;;;;20.80;31.10;;;;;;683499;29;1370;-86
2022/01/19 01:05:45;;;;;;;;;;;20.80;30.90;;;;;;678189;29;1262;-87
2022/01/19 01:06:08;;;;;;;;;;;20.80;30.70;;;;;;680933;29;1225;-85
2022/01/19 01:06:30;;;;;;;;;;;20.80;31.00;;;;;;683661;29;1408;-88
2022/01/19 01:06:51;;;;;;;;;;;20.80;30.80;;;;;;686036;28;1335;-86
2022/01/19 01:07:11;;;;;;;;;;;20.70;30.70;;;;;;682550;29;1273;-85
2022/01/19 01:07:33;;;;;;;;;;;20.80;30.70;;;;;;680952;29;1242;-86
2022/01/19 01:07:54;;;;;;;;;;;20.80;30.70;;;;;;680581;29;1419;-85
2022/01/19 01:08:14;;;;;;;;;;;20.80;30.50;;;;;;681356;29;1185;-88
2022/01/19 01:08:35;;;;;;;;;;;20.80;30.50;;;;;;680617;29;1365;-88
2022/01/19 01:08:55;;;;;;;;;;;20.80;30.50;;;;;;683556;29;823;-85
2022/01/19 01:09:16;;;;;;;;;;;20.80;30.50;;;;;;680797;29;1221;-86
2022/01/19 01:09:37;;;;;;;;;;;20.70;30.50;;;;;;680858;29;1455;-87
2022/01/19 01:09:57;;;;;;;;;;;20.80;30.40;;;;;;680967;29;1324;-86
2022/01/19 01:10:20;;;;;;;;;;;20.80;30.30;;;;;;680791;29;1250;-85
2022/01/19 01:10:42;;;;;;;;;;;20.80;30.30;;;;;;683570;29;874;-86
2022/01/19 01:11:03;;;;;;;;;;;20.80;30.40;;;;;;683483;29;1178;-86
2022/01/19 01:11:29;;;;;;;;;;;20.80;30.50;;;;;;683217;29;1181;-85
2022/01/19 01:12:10;;;;;;;;;;;20.80;30.40;;;;;;683597;29;1249;-84
2022/01/19 01:12:43;;;;;;;;;;;20.80;30.30;;;;;;683512;29;830;-85
2022/01/19 01:13:21;;;;;;;;;;;20.80;30.20;;;;;;683463;29;1125;-89
2022/01/19 01:16:16;;;;;;;;;;;20.80;30.10;;;;;;686391;28;858;-84
2022/01/19 01:16:39;;;;;;;;;;;20.80;30.20;;;;;;685551;28;1372;-86
2022/01/19 01:17:12;;;;;;;;;;;20.80;30.10;;;;;;683108;29;1268;-84
2022/01/19 01:18:19;;;;;;;;;;;20.80;30.20;;;;;;683463;29;622;-85
2022/01/19 01:18:39;;;;;;;;;;;20.80;30.00;;;;;;683389;29;1277;-85
2022/01/19 01:19:01;;;;;;;;;;;20.80;30.00;;;;;;683398;29;1328;-86
2022/01/19 01:19:21;;;;;;;;;;;20.80;30.00;;;;;;684276;28;1215;-86
2022/01/19 01:19:42;;;;;;;;;;;20.80;30.00;;;;;;686074;28;800;-87
2022/01/19 01:20:05;;;;;;;;;;;20.80;30.00;;;;;;683490;29;1361;-86
2022/01/19 01:20:25;;;;;;;;;;;20.80;30.00;;;;;;683565;29;1495;-85
2022/01/19 01:20:50;;;;;;;;;;;20.80;30.00;;;;;;683291;29;1243;-84
2022/01/19 01:21:11;;;;;;;;;;;20.80;30.00;;;;;;683213;29;1115;-85
2022/01/19 01:21:32;;;;;;;;;;;20.80;30.00;;;;;;683418;29;1202;-85
2022/01/19 01:21:52;;;;;;;;;;;20.80;30.00;;;;;;681868;29;1312;-86
2022/01/19 01:22:13;;;;;;;;;;;20.80;31.10;;;;;;680685;29;1320;-85
2022/01/19 01:22:34;;;;;;;;;;;20.80;30.00;;;;;;680842;29;1209;-85
2022/01/19 01:22:54;;;;;;;;;;;20.80;30.10;;;;;;681047;29;1282;-89
2022/01/19 01:23:16;;;;;;;;;;;20.80;30.00;;;;;;683474;29;1009;-88
2022/01/19 01:23:36;;;;;;;;;;;20.80;30.00;;;;;;683455;29;1323;-89
2022/01/19 01:23:57;;;;;;;;;;;20.80;30.00;;;;;;681195;29;1366;-87
2022/01/19 01:24:18;;;;;;;;;;;20.80;30.00;;;;;;683504;29;824;-89
2022/01/19 01:24:38;;;;;;;;;;;20.80;30.00;;;;;;683381;29;1365;-88
2022/01/19 01:24:59;;;;;;;;;;;20.80;30.00;;;;;;683454;29;1211;-88
2022/01/19 01:25:19;;;;;;;;;;;20.80;30.00;;;;;;683829;28;1210;-86
2022/01/19 01:25:40;;;;;;;;;;;20.80;29.90;;;;;;682926;29;1205;-91
2022/01/19 01:26:02;;;;;;;;;;;20.80;30.00;;;;;;683375;29;1285;-86
2022/01/19 01:26:22;;;;;;;;;;;20.80;30.00;;;;;;683312;29;1239;-85
2022/01/19 01:26:43;;;;;;;;;;;20.80;30.00;;;;;;683055;29;1238;-88
2022/01/19 01:27:03;;;;;;;;;;;20.90;30.10;;;;;;681044;29;1191;-90
2022/01/19 01:27:24;;;;;;;;;;;20.80;30.00;;;;;;683847;28;729;-90
2022/01/19 01:27:45;;;;;;;;;;;20.80;30.00;;;;;;683293;29;1456;-84
2022/01/19 01:28:06;;;;;;;;;;;20.80;29.90;;;;;;680639;29;1234;-86
2022/01/19 01:28:26;;;;;;;;;;;20.90;30.00;;;;;;680419;29;1223;-85
2022/01/19 01:28:47;;;;;;;;;;;20.80;30.00;;;;;;680995;29;1250;-86
2022/01/19 01:29:08;;;;;;;;;;;20.80;30.00;;;;;;680742;29;1369;-86
2022/01/19 01:29:28;;;;;;;;;;;20.80;30.10;;;;;;681137;29;1110;-85
2022/01/19 01:29:49;;;;;;;;;;;20.80;30.00;;;;;;683314;29;1198;-86
2022/01/19 01:30:10;;;;;;;;;;;20.80;30.00;;;;;;683254;29;1115;-85
2022/01/19 01:30:30;;;;;;;;;;;20.80;30.00;;;;;;681073;29;1364;-86
2022/01/19 01:30:51;;;;;;;;;;;20.90;30.00;;;;;;680660;29;840;-86
2022/01/19 01:31:12;;;;;;;;;;;20.90;30.00;;;;;;680798;29;815;-85
2022/01/19 01:31:32;;;;;;;;;;;20.80;30.00;;;;;;683444;29;808;-87
2022/01/19 01:31:53;;;;;;;;;;;20.90;30.00;;;;;;683531;29;1311;-86
2022/01/19 01:32:14;;;;;;;;;;;20.80;29.70;;;;;;683323;29;1245;-85
2022/01/19 01:32:35;;;;;;;;;;;20.80;29.80;;;;;;683334;29;1196;-88
2022/01/19 01:32:55;;;;;;;;;;;20.80;29.90;;;;;;683375;28;1101;-85
2022/01/19 01:33:16;;;;;;;;;;;20.80;30.00;;;;;;683837;28;1113;-85
2022/01/19 01:33:37;;;;;;;;;;;20.90;29.90;;;;;;683516;29;1221;-85
2022/01/19 01:33:58;;;;;;;;;;;20.90;29.70;;;;;;683392;29;1382;-85
2022/01/19 01:34:19;;;;;;;;;;;20.80;29.70;;;;;;683797;28;1221;-87
2022/01/19 01:34:39;;;;;;;;;;;20.90;29.90;;;;;;683675;29;1210;-85
2022/01/19 01:35:00;;;;;;;;;;;20.90;30.00;;;;;;680769;29;1494;-86
2022/01/19 01:35:21;;;;;;;;;;;20.90;30.00;;;;;;681014;29;1407;-85
2022/01/19 01:35:41;;;;;;;;;;;20.80;29.80;;;;;;678038;29;1903;-84
2022/01/19 01:36:03;;;;;;;;;;;20.90;29.80;;;;;;681212;29;1329;-86
2022/01/19 01:36:23;;;;;;;;;;;20.90;29.80;;;;;;683596;29;832;-84
2022/01/19 01:36:44;;;;;;;;;;;20.90;29.70;;;;;;680987;29;899;-84
2022/01/19 01:37:04;;;;;;;;;;;20.90;29.70;;;;;;678710;29;1198;-87
2022/01/19 01:37:25;;;;;;;;;;;20.90;29.70;;;;;;681512;29;1175;-85
2022/01/19 01:37:46;;;;;;;;;;;20.90;29.80;;;;;;683445;29;1217;-85
2022/01/19 01:38:07;;;;;;;;;;;20.80;29.70;;;;;;680781;29;1104;-85
2022/01/19 01:38:27;;;;;;;;;;;20.90;29.70;;;;;;681532;29;1305;-86
2022/01/19 01:38:48;;;;;;;;;;;20.80;29.60;;;;;;682054;29;1224;-86
2022/01/19 01:39:09;;;;;;;;;;;20.80;29.70;;;;;;679908;29;1272;-85
2022/01/19 01:39:29;;;;;;;;;;;20.90;29.70;;;;;;682752;29;1296;-84
2022/01/19 01:39:50;;;;;;;;;;;20.90;29.70;;;;;;682333;29;1393;-86
2022/01/19 01:40:13;;;;;;;;;;;20.90;29.90;;;;;;682628;29;1203;-85
2022/01/19 01:40:35;;;;;;;;;;;20.90;29.80;;;;;;677820;29;1362;-91
2022/01/19 01:40:55;;;;;;;;;;;20.90;29.80;;;;;;681239;29;973;-87
2022/01/19 01:41:16;;;;;;;;;;;20.90;29.70;;;;;;682919;29;1114;-87
2022/01/19 01:41:37;;;;;;;;;;;20.90;29.70;;;;;;682771;29;1520;-87
2022/01/19 01:41:57;;;;;;;;;;;20.90;29.60;;;;;;684081;29;1245;-86
2022/01/19 01:42:19;;;;;;;;;;;20.90;29.60;;;;;;683233;29;1239;-85
2022/01/19 01:42:40;;;;;;;;;;;20.80;29.60;;;;;;682861;29;1226;-84
2022/01/19 01:43:02;;;;;;;;;;;20.90;29.70;;;;;;683466;29;1260;-86
2022/01/19 01:43:23;;;;;;;;;;;20.90;29.70;;;;;;682864;29;1210;-85
2022/01/19 01:43:45;;;;;;;;;;;20.90;29.70;;;;;;680294;29;1136;-90
2022/01/19 01:44:05;;;;;;;;;;;20.90;29.70;;;;;;682785;29;1289;-86
2022/01/19 01:44:33;;;;;;;;;;;20.90;29.70;;;;;;685465;29;1076;-85
2022/01/19 01:44:57;;;;;;;;;;;20.90;29.80;;;;;;680328;29;1087;-84
2022/01/19 01:45:23;;;;;;;;;;;20.90;29.70;;;;;;678799;29;1211;-86
2022/01/19 01:45:46;;;;;;;;;;;20.90;29.70;;;;;;681352;29;1318;-85
2022/01/19 01:46:17;;;;;;;;;;;20.90;29.60;;;;;;682039;29;1280;-86
2022/01/19 01:46:48;;;;;;;;;;;20.90;29.50;;;;;;684370;29;1194;-84
2022/01/19 01:47:10;;;;;;;;;;;20.90;29.70;;;;;;682031;29;1106;-85
2022/01/19 01:47:33;;;;;;;;;;;20.90;29.70;;;;;;682268;29;1249;-85
2022/01/19 01:48:04;;;;;;;;;;;20.90;29.80;;;;;;683338;29;1246;-92
2022/01/19 01:48:25;;;;;;;;;;;20.90;29.90;;;;;;684964;29;1288;-87
2022/01/19 01:48:47;;;;;;;;;;;20.90;29.70;;;;;;684830;29;1140;-86
2022/01/19 01:49:15;;;;;;;;;;;20.90;29.70;;;;;;684961;29;1218;-85
2022/01/19 01:53:43;;;;;;;;;;;20.90;29.50;;;;;;686259;28;653;-85
2022/01/19 01:54:05;;;;;;;;;;;20.90;29.60;;;;;;683160;29;1245;-86
2022/01/19 01:54:26;;;;;;;;;;;20.90;29.60;;;;;;680788;29;1279;-86
2022/01/19 01:54:46;;;;;;;;;;;20.90;29.60;;;;;;680552;29;1198;-85
2022/01/19 01:55:10;;;;;;;;;;;20.90;29.80;;;;;;680538;29;1197;-86
2022/01/19 01:55:31;;;;;;;;;;;20.90;29.70;;;;;;677931;29;1902;-87
2022/01/19 01:56:27;;;;;;;;;;;20.90;29.60;;;;;;678006;29;1362;-86
2022/01/19 01:56:47;;;;;;;;;;;20.90;29.40;;;;;;674431;29;1283;-85
2022/01/19 01:57:08;;;;;;;;;;;20.90;29.50;;;;;;675233;29;1308;-85
2022/01/19 01:57:29;;;;;;;;;;;20.90;29.60;;;;;;677412;29;1351;-85
2022/01/19 01:57:49;;;;;;;;;;;20.90;29.50;;;;;;673167;29;871;-86
2022/01/19 01:58:10;;;;;;;;;;;20.90;29.70;;;;;;672595;29;1239;-85
2022/01/19 01:58:40;;;;;;;;;;;20.90;29.50;;;;;;672870;29;1242;-85
2022/01/19 01:59:00;;;;;;;;;;;20.90;29.50;;;;;;672677;29;1358;-86
2022/01/19 01:59:21;;;;;;;;;;;20.90;29.50;;;;;;672687;29;1327;-85
2022/01/19 01:59:42;;;;;;;;;;;20.90;29.60;;;;;;672603;29;1204;-85
2022/01/19 02:00:04;;;;;;;;;;;20.90;29.60;;;;;;676792;29;1373;-87
2022/01/19 02:00:25;;;;;;;;;;;20.90;29.40;;;;;;675338;29;1313;-86
2022/01/19 02:00:46;;;;;;;;;;;20.90;29.30;;;;;;675055;29;1179;-85
2022/01/19 02:01:07;;;;;;;;;;;20.90;29.30;;;;;;672691;29;1208;-86
2022/01/19 02:01:27;;;;;;;;;;;20.90;29.70;;;;;;672722;29;1105;-86
2022/01/19 02:01:48;;;;;;;;;;;20.90;29.40;;;;;;669550;29;1226;-87
2022/01/19 02:02:09;;;;;;;;;;;20.90;29.30;;;;;;668080;29;1129;-85
2022/01/19 02:02:29;;;;;;;;;;;20.90;29.30;;;;;;670273;29;1290;-88
2022/01/19 02:02:50;;;;;;;;;;;20.90;29.30;;;;;;670655;29;1360;-85
2022/01/19 02:03:12;;;;;;;;;;;20.90;29.40;;;;;;672660;29;1434;-86
2022/01/19 02:03:38;;;;;;;;;;;20.80;29.40;;;;;;673290;29;813;-85
2022/01/19 02:03:59;;;;;;;;;;;20.80;29.30;;;;;;672781;29;1313;-85
2022/01/19 02:04:23;;;;;;;;;;;20.80;29.20;;;;;;672689;29;1269;-85
2022/01/19 02:04:43;;;;;;;;;;;20.80;29.30;;;;;;670030;29;1251;-85
2022/01/19 02:05:08;;;;;;;;;;;20.80;29.40;;;;;;671749;29;1334;-85
2022/01/19 02:05:31;;;;;;;;;;;20.80;29.50;;;;;;670291;29;1220;-85
2022/01/19 02:06:16;;;;;;;;;;;20.80;29.50;;;;;;668911;29;1387;-85
2022/01/19 02:06:38;;;;;;;;;;;20.80;29.50;;;;;;670076;29;1102;-86
2022/01/19 02:07:31;;;;;;;;;;;20.70;29.40;;;;;;674503;29;1247;-85
2022/01/19 02:08:23;;;;;;;;;;;20.70;29.70;;;;;;680578;29;823;-87
2022/01/19 02:08:56;;;;;;;;;;;20.70;29.60;;;;;;677277;29;1184;-89
2022/01/19 02:09:20;;;;;;;;;;;20.70;29.50;;;;;;675161;29;1516;-86
2022/01/19 02:09:42;;;;;;;;;;;20.70;29.50;;;;;;675307;29;1251;-85
2022/01/19 02:10:05;;;;;;;;;;;20.70;29.60;;;;;;672757;29;1293;-86
2022/01/19 02:10:45;;;;;;;;;;;20.70;29.60;;;;;;672825;29;1101;-87
2022/01/19 02:21:35;;;;;;;;;;;20.60;30.10;;;;;;665103;29;1327;-86
2022/01/19 02:22:01;;;;;;;;;;;20.60;30.50;;;;;;662704;29;628;-88
2022/01/19 02:22:29;;;;;;;;;;;20.60;30.50;;;;;;662522;29;1106;-86
2022/01/19 02:22:50;;;;;;;;;;;20.70;30.60;;;;;;662577;29;1507;-90
2022/01/19 02:23:19;;;;;;;;;;;20.60;30.50;;;;;;660104;29;1286;-90
2022/01/19 02:23:47;;;;;;;;;;;20.60;30.50;;;;;;660144;29;1242;-90
2022/01/19 02:24:12;;;;;;;;;;;20.60;30.50;;;;;;660199;29;885;-90
2022/01/19 02:24:45;;;;;;;;;;;20.60;30.50;;;;;;660272;29;1209;-91
2022/01/19 02:25:06;;;;;;;;;;;20.60;30.50;;;;;;659329;30;1490;-91
2022/01/19 02:25:30;;;;;;;;;;;20.60;30.50;;;;;;659418;30;1261;-92
2022/01/19 02:25:59;;;;;;;;;;;20.60;30.50;;;;;;660310;29;1079;-91
2022/01/19 02:26:31;;;;;;;;;;;20.60;30.40;;;;;;662618;29;1305;-90
2022/01/19 02:31:22;;;;;;;;;;;20.60;30.40;;;;;;667970;29;595;-92
2022/01/19 02:40:19;;;;;;;;;;;20.60;30.40;;;;;;660190;30;1378;-93
2022/01/19 02:40:41;;;;;;;;;;;20.50;30.30;;;;;;657590;30;1374;-92
2022/01/19 02:41:02;;;;;;;;;;;20.50;30.30;;;;;;657748;30;1139;-93
2022/01/19 02:41:22;;;;;;;;;;;20.50;30.30;;;;;;657625;30;1239;-91
2022/01/19 02:41:45;;;;;;;;;;;20.50;30.30;;;;;;657591;30;1242;-91
2022/01/19 02:42:08;;;;;;;;;;;20.50;30.40;;;;;;657666;30;1269;-91
2022/01/19 02:42:33;;;;;;;;;;;20.50;30.30;;;;;;658756;30;1226;-92
2022/01/19 02:43:27;;;;;;;;;;;20.50;30.20;;;;;;656779;30;1073;-91
2022/01/19 02:43:50;;;;;;;;;;;20.50;30.20;;;;;;657544;30;1389;-91